Time;durP1;ratioP1;P1;durP2;ratioP2;P2;SDS_P1;SDS_P2;PMS_P1;PMS_P2;Temp;Humidity;BMP_temperature;BMP_pressure;BME280_temperature;BME280_humidity;BME280_pressure;Samples;Min_cycle;Max_cycle;Signal;HPM_P1;HPM_P2
2021/04/20 00:01:54;;;;;;;5.65;5.05;;;20.80;45.80;;;;;;5035504;28;20018;-51
2021/04/20 00:04:19;;;;;;;5.95;5.20;;;20.80;45.80;;;;;;5036027;28;20025;-57
2021/04/20 00:06:45;;;;;;;5.80;5.22;;;20.80;45.80;;;;;;5035452;28;20028;-54
2021/04/20 00:09:11;;;;;;;6.47;4.95;;;20.80;45.80;;;;;;5035770;28;20053;-53
2021/04/20 00:11:37;;;;;;;6.20;5.22;;;20.70;45.70;;;;;;5035888;28;20022;-53
2021/04/20 00:14:09;;;;;;;6.20;5.60;;;20.70;45.70;;;;;;5034446;28;20367;-54
2021/04/20 00:16:34;;;;;;;5.75;5.10;;;20.70;45.70;;;;;;5035622;28;20344;-57
2021/04/20 00:19:02;;;;;;;6.95;5.78;;;20.70;45.70;;;;;;5035628;28;20112;-49
2021/04/20 00:21:27;;;;;;;6.78;5.22;;;20.70;45.70;;;;;;5035186;28;20026;-54
2021/04/20 00:23:53;;;;;;;6.18;5.47;;;20.70;46.30;;;;;;5034349;28;20347;-54
2021/04/20 00:26:19;;;;;;;5.82;5.20;;;20.70;45.60;;;;;;5035231;28;20027;-56
2021/04/20 00:28:44;;;;;;;5.97;5.47;;;20.70;45.60;;;;;;5035274;28;20026;-55
2021/04/20 00:31:10;;;;;;;6.38;5.68;;;20.70;45.50;;;;;;5035341;28;20356;-52
2021/04/20 00:33:35;;;;;;;6.35;5.70;;;20.70;45.50;;;;;;5034859;28;20572;-55
2021/04/20 00:36:01;;;;;;;5.97;5.38;;;20.70;45.50;;;;;;5035502;28;20037;-55
2021/04/20 00:38:26;;;;;;;5.57;5.07;;;20.70;45.50;;;;;;5035114;28;20474;-54
2021/04/20 00:40:52;;;;;;;6.05;5.50;;;20.60;45.40;;;;;;5035235;28;20025;-54
2021/04/20 00:43:17;;;;;;;6.13;5.53;;;20.70;45.50;;;;;;5035407;28;20404;-53
2021/04/20 00:45:43;;;;;;;6.15;5.22;;;20.60;45.40;;;;;;5034530;28;20432;-51
2021/04/20 00:48:09;;;;;;;5.95;5.40;;;20.60;46.00;;;;;;5035114;28;20325;-52
2021/04/20 00:50:40;;;;;;;6.22;5.63;;;20.60;45.40;;;;;;5034732;28;20021;-53
2021/04/20 00:53:08;;;;;;;6.43;5.72;;;20.60;45.30;;;;;;5034845;28;20344;-56
2021/04/20 00:55:34;;;;;;;6.63;5.95;;;20.60;45.30;;;;;;5035034;28;20471;-54
2021/04/20 00:58:00;;;;;;;6.45;5.85;;;20.60;45.30;;;;;;5034761;28;20400;-55
2021/04/20 01:00:29;;;;;;;6.75;6.05;;;20.60;45.20;;;;;;5034913;28;20052;-50
2021/04/20 01:02:55;;;;;;;5.80;5.30;;;20.60;45.20;;;;;;5034819;28;20021;-57
2021/04/20 01:05:27;;;;;;;5.90;5.40;;;20.60;45.90;;;;;;5034684;28;20087;-51
2021/04/20 01:08:00;;;;;;;6.10;5.55;;;20.60;45.20;;;;;;5034887;28;20341;-56
2021/04/20 01:10:27;;;;;;;6.40;5.80;;;20.60;45.30;;;;;;5034592;28;20057;-53
2021/04/20 01:12:53;;;;;;;6.10;5.50;;;20.60;45.20;;;;;;5034662;28;20021;-52
2021/04/20 01:15:19;;;;;;;7.32;5.57;;;20.50;45.20;;;;;;5034524;28;20033;-52
2021/04/20 01:17:45;;;;;;;6.63;5.53;;;20.50;45.20;;;;;;5034402;28;20021;-57
2021/04/20 01:20:12;;;;;;;6.43;5.72;;;20.50;45.10;;;;;;5034279;28;20444;-56
2021/04/20 01:22:43;;;;;;;6.20;5.60;;;20.50;45.10;;;;;;5034273;28;20028;-55
2021/04/20 01:25:10;;;;;;;6.15;5.55;;;20.50;45.10;;;;;;5034241;28;20025;-52
2021/04/20 01:27:37;;;;;;;6.40;5.80;;;20.50;45.10;;;;;;5034418;28;20041;-51
2021/04/20 01:30:06;;;;;;;6.20;5.28;;;20.50;45.10;;;;;;5032731;28;20132;-54
2021/04/20 01:32:34;;;;;;;5.53;5.00;;;20.50;45.10;;;;;;5034009;28;20449;-50
2021/04/20 01:35:00;;;;;;;5.90;5.30;;;20.50;45.10;;;;;;5034181;28;20024;-54
2021/04/20 01:37:25;;;;;;;6.53;5.82;;;20.50;45.00;;;;;;5034206;28;20104;-51
2021/04/20 01:39:51;;;;;;;7.10;5.75;;;20.50;45.00;;;;;;5034328;28;20025;-54
2021/04/20 01:42:17;;;;;;;6.07;5.47;;;20.40;45.00;;;;;;5033768;28;20084;-50
2021/04/20 01:44:43;;;;;;;5.72;5.22;;;20.40;45.00;;;;;;5033988;28;20071;-51
2021/04/20 01:47:10;;;;;;;6.63;6.03;;;20.40;44.90;;;;;;5033742;28;20026;-54
2021/04/20 01:49:35;;;;;;;6.28;5.68;;;20.50;45.00;;;;;;5033582;28;20457;-54
2021/04/20 01:52:01;;;;;;;5.72;5.22;;;20.40;44.90;;;;;;5033989;28;20163;-52
2021/04/20 01:54:27;;;;;;;7.63;6.18;;;20.40;44.90;;;;;;5033436;28;20033;-54
2021/04/20 01:56:54;;;;;;;6.80;6.13;;;20.40;44.80;;;;;;5033907;28;20440;-50
2021/04/20 01:59:21;;;;;;;6.85;6.18;;;20.40;44.80;;;;;;5033245;28;20377;-56
2021/04/20 02:01:48;;;;;;;6.07;5.50;;;20.40;44.80;;;;;;5033297;28;20437;-52
2021/04/20 02:04:14;;;;;;;6.45;5.85;;;20.40;44.80;;;;;;5034159;28;20036;-53
2021/04/20 02:06:40;;;;;;;6.47;5.88;;;20.40;44.80;;;;;;5033572;28;20021;-50
2021/04/20 02:09:06;;;;;;;6.70;6.07;;;20.40;44.80;;;;;;5033597;28;20482;-50
2021/04/20 02:11:32;;;;;;;6.30;5.70;;;20.40;44.70;;;;;;5033854;28;20025;-50
2021/04/20 02:13:59;;;;;;;6.43;5.82;;;20.40;44.70;;;;;;5033249;28;20022;-52
2021/04/20 02:16:25;;;;;;;7.22;6.32;;;20.40;44.70;;;;;;5032915;28;20036;-51
2021/04/20 02:18:54;;;;;;;7.05;6.35;;;20.30;44.70;;;;;;5033116;28;20033;-56
2021/04/20 02:21:20;;;;;;;6.63;5.88;;;20.40;45.30;;;;;;5033528;28;20499;-52
2021/04/20 02:23:47;;;;;;;7.20;6.18;;;20.30;44.50;;;;;;5033242;28;20068;-52
2021/04/20 02:26:16;;;;;;;7.85;6.40;;;20.30;44.50;;;;;;5033375;28;20022;-55
2021/04/20 02:28:42;;;;;;;6.70;6.00;;;20.30;44.50;;;;;;5032646;28;20034;-53
2021/04/20 02:31:08;;;;;;;7.82;6.00;;;20.30;44.50;;;;;;5033194;28;20033;-54
2021/04/20 02:33:35;;;;;;;6.88;6.28;;;20.30;44.50;;;;;;5033588;28;20052;-54
2021/04/20 02:36:02;;;;;;;5.90;5.30;;;20.30;44.50;;;;;;5033143;28;20105;-55
2021/04/20 02:38:28;;;;;;;6.97;6.13;;;20.30;44.40;;;;;;5033022;28;20029;-55
2021/04/20 02:40:56;;;;;;;6.18;5.57;;;20.30;44.40;;;;;;5033524;28;20452;-57
2021/04/20 02:43:24;;;;;;;7.03;6.20;;;20.30;44.40;;;;;;5033262;28;20037;-52
2021/04/20 02:45:52;;;;;;;7.00;6.30;;;20.30;44.40;;;;;;5033060;28;20055;-55
2021/04/20 02:48:17;;;;;;;6.55;5.95;;;20.30;44.40;;;;;;5033275;28;20115;-55
2021/04/20 02:50:45;;;;;;;6.30;5.70;;;20.20;44.30;;;;;;5032869;28;20084;-53
2021/04/20 02:53:13;;;;;;;6.35;5.75;;;20.20;44.30;;;;;;5033279;28;20033;-50
2021/04/20 02:55:39;;;;;;;6.78;6.07;;;20.20;44.20;;;;;;5031724;28;20400;-56
2021/04/20 02:58:06;;;;;;;7.30;6.57;;;20.30;44.30;;;;;;5032943;28;20021;-57
2021/04/20 03:00:32;;;;;;;6.30;5.70;;;20.20;44.20;;;;;;5033118;28;20030;-51
2021/04/20 03:03:01;;;;;;;7.20;6.50;;;20.30;44.20;;;;;;5032917;28;20361;-54
2021/04/20 03:05:28;;;;;;;7.25;6.55;;;20.20;44.30;;;;;;5032968;28;20021;-51
2021/04/20 03:07:54;;;;;;;8.52;7.18;;;20.20;44.00;;;;;;5032826;28;20351;-56
2021/04/20 03:10:20;;;;;;;8.43;6.80;;;20.20;43.50;;;;;;5032760;28;20030;-53
2021/04/20 03:12:47;;;;;;;8.23;7.20;;;20.20;43.80;;;;;;5032794;28;20502;-53
2021/04/20 03:15:16;;;;;;;8.35;6.63;;;20.10;43.80;;;;;;5032588;28;20026;-53
2021/04/20 03:17:47;;;;;;;9.07;7.10;;;20.10;43.80;;;;;;5032935;28;20025;-53
2021/04/20 03:20:13;;;;;;;7.97;7.18;;;20.10;43.80;;;;;;5032992;28;20358;-53
2021/04/20 03:22:41;;;;;;;8.00;7.20;;;20.10;43.80;;;;;;5032872;28;20404;-50
2021/04/20 03:25:07;;;;;;;8.13;6.90;;;20.10;43.80;;;;;;5032422;28;20352;-55
2021/04/20 03:27:41;;;;;;;7.35;6.68;;;20.10;43.80;;;;;;5034155;28;20325;-53
2021/04/20 03:30:08;;;;;;;7.63;6.88;;;20.10;43.90;;;;;;5036451;28;20061;-54
2021/04/20 03:32:34;;;;;;;8.13;7.20;;;20.10;43.80;;;;;;5036655;28;20021;-52
2021/04/20 03:35:14;;;;;;;7.22;6.53;;;20.10;43.90;;;;;;5036012;28;20052;-53
2021/04/20 03:37:46;;;;;;;6.90;6.30;;;20.10;43.90;;;;;;5036600;28;20707;-55
2021/04/20 03:40:14;;;;;;;7.40;6.63;;;20.10;43.90;;;;;;5036332;28;20021;-54
2021/04/20 03:42:51;;;;;;;7.75;6.95;;;20.10;43.90;;;;;;5036254;28;20108;-51
2021/04/20 03:45:22;;;;;;;7.28;6.57;;;20.10;43.80;;;;;;5036517;28;20029;-52
2021/04/20 03:47:52;;;;;;;8.65;7.18;;;20.10;43.80;;;;;;5036062;28;20322;-53
2021/04/20 03:50:24;;;;;;;6.55;5.95;;;20.00;43.80;;;;;;5035911;28;20444;-53
2021/04/20 03:52:53;;;;;;;7.90;6.95;;;20.00;43.80;;;;;;5036030;28;20022;-55
2021/04/20 03:55:24;;;;;;;7.32;6.63;;;20.00;43.80;;;;;;5036002;28;20083;-54
2021/04/20 03:57:51;;;;;;;7.55;6.85;;;20.00;43.80;;;;;;5036146;28;20097;-51
2021/04/20 04:00:18;;;;;;;7.35;6.65;;;20.00;43.80;;;;;;5035914;28;20104;-54
2021/04/20 04:02:46;;;;;;;7.35;6.65;;;20.00;43.80;;;;;;5035891;28;20036;-53
2021/04/20 04:05:16;;;;;;;7.35;6.63;;;20.00;43.80;;;;;;5035894;28;20033;-52
2021/04/20 04:07:44;;;;;;;7.57;6.80;;;20.00;43.80;;;;;;5035386;28;20124;-54
2021/04/20 04:10:11;;;;;;;7.53;6.72;;;20.00;43.80;;;;;;5036141;28;20080;-52
2021/04/20 04:12:41;;;;;;;9.82;6.88;;;20.00;43.80;;;;;;5035711;28;20341;-53
2021/04/20 04:15:09;;;;;;;8.48;7.03;;;20.00;43.80;;;;;;5035442;28;20040;-55
2021/04/20 04:17:42;;;;;;;7.95;7.15;;;20.00;43.80;;;;;;5035720;28;20341;-54
2021/04/20 04:20:11;;;;;;;7.57;6.55;;;20.00;43.80;;;;;;5035419;28;20025;-53
2021/04/20 04:22:42;;;;;;;7.95;6.72;;;19.90;43.70;;;;;;5035717;28;20026;-52
2021/04/20 04:25:13;;;;;;;7.93;6.78;;;19.90;43.70;;;;;;5035526;28;20033;-55
2021/04/20 04:27:43;;;;;;;7.97;7.15;;;19.90;43.70;;;;;;5035234;28;20018;-55
2021/04/20 04:30:10;;;;;;;7.20;6.50;;;19.90;43.80;;;;;;5035270;28;20103;-55
2021/04/20 04:32:39;;;;;;;7.07;6.38;;;19.90;43.70;;;;;;5035265;28;20041;-53
2021/04/20 04:35:06;;;;;;;7.15;6.45;;;19.90;43.70;;;;;;5034833;28;20463;-51
2021/04/20 04:37:33;;;;;;;7.68;6.30;;;19.90;43.70;;;;;;5034998;28;20029;-54
2021/04/20 04:40:02;;;;;;;7.85;7.07;;;19.90;43.70;;;;;;5034974;28;20356;-55
2021/04/20 04:42:27;;;;;;;8.02;7.22;;;19.90;43.70;;;;;;5035589;28;20114;-51
2021/04/20 04:44:53;;;;;;;8.38;7.32;;;19.90;43.70;;;;;;5035019;28;20073;-52
2021/04/20 04:47:18;;;;;;;7.53;6.80;;;19.90;43.70;;;;;;5035045;28;20036;-53
2021/04/20 04:49:46;;;;;;;7.78;7.07;;;19.90;43.70;;;;;;5035151;28;20042;-55
2021/04/20 04:52:14;;;;;;;7.63;6.82;;;19.80;43.60;;;;;;5034857;28;20175;-53
2021/04/20 04:54:42;;;;;;;7.35;6.65;;;19.90;43.60;;;;;;5034862;28;20022;-53
2021/04/20 04:57:10;;;;;;;7.80;6.97;;;19.90;43.60;;;;;;5033718;28;20025;-50
2021/04/20 04:59:37;;;;;;;7.70;7.00;;;19.80;43.60;;;;;;5035151;28;20041;-52
2021/04/20 05:02:03;;;;;;;7.95;6.53;;;19.90;43.60;;;;;;5034767;28;20108;-52
2021/04/20 05:04:29;;;;;;;7.90;7.07;;;19.80;43.60;;;;;;5034282;28;20100;-53
2021/04/20 05:06:54;;;;;;;9.15;7.00;;;19.80;43.50;;;;;;5034951;28;20080;-54
2021/04/20 05:09:22;;;;;;;8.63;6.95;;;19.80;43.50;;;;;;5034375;28;20429;-54
2021/04/20 05:11:49;;;;;;;7.95;7.13;;;19.80;43.50;;;;;;5034511;28;20084;-54
2021/04/20 05:14:16;;;;;;;6.85;6.25;;;19.80;43.50;;;;;;5034824;28;20036;-50
2021/04/20 05:16:46;;;;;;;7.63;6.57;;;19.80;43.50;;;;;;5034399;28;20029;-51
2021/04/20 05:19:13;;;;;;;8.48;6.95;;;19.80;43.50;;;;;;5034402;28;20033;-60
2021/04/20 05:21:39;;;;;;;13.70;7.38;;;19.80;43.90;;;;;;5033681;28;20352;-52
2021/04/20 05:24:06;;;;;;;12.55;8.45;;;19.80;44.00;;;;;;5034417;28;20028;-52
2021/04/20 05:26:32;;;;;;;8.40;7.45;;;19.70;43.90;;;;;;5034469;28;20033;-51
2021/04/20 05:29:03;;;;;;;9.45;6.60;;;19.70;44.10;;;;;;5033826;28;20073;-50
2021/04/20 05:31:30;;;;;;;9.10;7.35;;;19.60;44.20;;;;;;5034401;28;20104;-49
2021/04/20 05:33:55;;;;;;;10.95;6.57;;;19.60;44.40;;;;;;5033907;28;20357;-51
2021/04/20 05:36:21;;;;;;;7.90;6.93;;;19.60;44.50;;;;;;5033885;28;20033;-54
2021/04/20 05:38:51;;;;;;;9.05;7.70;;;19.50;44.60;;;;;;5034240;28;20029;-53
2021/04/20 05:41:31;;;;;;;8.43;7.55;;;19.50;44.50;;;;;;5032581;28;20108;-53
2021/04/20 05:44:00;;;;;;;8.38;7.57;;;19.60;44.40;;;;;;5033505;28;20029;-52
2021/04/20 05:46:26;;;;;;;8.27;6.90;;;19.60;44.30;;;;;;5034078;28;20344;-58
2021/04/20 05:48:53;;;;;;;8.18;6.40;;;19.60;44.30;;;;;;5033647;28;20037;-52
2021/04/20 05:51:20;;;;;;;7.43;6.47;;;19.60;44.30;;;;;;5033046;28;20021;-49
2021/04/20 05:53:47;;;;;;;14.25;7.78;;;19.70;44.40;;;;;;5033859;28;20025;-55
2021/04/20 05:56:17;;;;;;;12.18;7.20;;;19.70;44.50;;;;;;5033692;28;20498;-51
2021/04/20 05:58:42;;;;;;;11.25;7.00;;;19.70;44.40;;;;;;5034006;28;20032;-53
2021/04/20 06:01:08;;;;;;;7.72;5.95;;;19.80;44.50;;;;;;5032930;28;20360;-55
2021/04/20 06:03:36;;;;;;;12.13;6.57;;;19.80;44.50;;;;;;5033366;28;20052;-57
2021/04/20 06:06:02;;;;;;;9.90;6.60;;;19.90;44.60;;;;;;5033397;28;20044;-56
2021/04/20 06:08:31;;;;;;;13.98;6.97;;;20.00;44.60;;;;;;5033407;28;20026;-58
2021/04/20 06:10:57;;;;;;;17.58;8.18;;;20.10;44.50;;;;;;5033551;28;20025;-55
2021/04/20 06:13:25;;;;;;;8.50;6.13;;;20.20;44.60;;;;;;5033213;28;20100;-55
2021/04/20 06:15:55;;;;;;;13.60;6.95;;;20.20;44.50;;;;;;5033740;28;20178;-55
2021/04/20 06:18:21;;;;;;;13.18;6.03;;;20.30;44.60;;;;;;5033735;28;20021;-58
2021/04/20 06:20:48;;;;;;;11.07;5.80;;;20.30;44.50;;;;;;5032897;28;20049;-55
2021/04/20 06:23:14;;;;;;;10.07;5.10;;;20.30;44.70;;;;;;5033371;28;20101;-53
2021/04/20 06:25:42;;;;;;;9.93;5.47;;;20.30;44.70;;;;;;5033014;28;20037;-55
2021/04/20 06:28:09;;;;;;;10.02;5.63;;;20.40;44.80;;;;;;5033188;28;20387;-56
2021/04/20 06:30:35;;;;;;;14.02;5.68;;;20.40;44.90;;;;;;5033236;28;20060;-56
2021/04/20 06:33:00;;;;;;;13.93;5.55;;;20.40;45.00;;;;;;5032945;28;20021;-53
2021/04/20 06:35:27;;;;;;;8.52;5.18;;;20.40;45.10;;;;;;5033342;28;20045;-56
2021/04/20 06:37:54;;;;;;;9.48;4.70;;;20.40;45.10;;;;;;5032938;28;20049;-56
2021/04/20 06:40:46;;;;;;;7.70;5.28;;;20.40;45.30;;;;;;5033159;28;20017;-56
2021/04/20 06:43:20;;;;;;;8.88;4.95;;;20.50;45.40;;;;;;5030329;28;20132;-57
2021/04/20 06:45:58;;;;;;;10.27;4.72;;;20.50;45.40;;;;;;5032848;28;20017;-55
2021/04/20 06:48:38;;;;;;;10.98;4.95;;;20.50;45.50;;;;;;5033003;28;20457;-53
2021/04/20 06:51:18;;;;;;;11.02;4.50;;;20.50;45.50;;;;;;5033133;28;20098;-57
2021/04/20 06:53:48;;;;;;;8.82;4.53;;;20.50;45.60;;;;;;5033078;28;20072;-52
2021/04/20 06:56:42;;;;;;;9.35;4.53;;;20.50;45.60;;;;;;5032683;28;20048;-53
2021/04/20 06:59:14;;;;;;;7.05;4.35;;;20.60;45.70;;;;;;5025221;28;20112;-56
2021/04/20 07:01:45;;;;;;;9.02;4.28;;;20.60;45.70;;;;;;5034355;28;20021;-56
2021/04/20 07:04:26;;;;;;;6.75;4.47;;;20.60;45.80;;;;;;5037012;28;20033;-58
2021/04/20 07:07:05;;;;;;;9.15;4.47;;;20.60;45.80;;;;;;5035880;28;20033;-54
2021/04/20 07:09:39;;;;;;;6.70;3.92;;;20.60;45.90;;;;;;5036353;28;20052;-56
2021/04/20 07:12:06;;;;;;;6.60;4.40;;;20.60;46.00;;;;;;5036792;28;20108;-55
2021/04/20 07:14:37;;;;;;;7.45;4.80;;;20.60;46.00;;;;;;5036645;28;20071;-54
2021/04/20 07:17:29;;;;;;;7.90;5.20;;;20.70;46.20;;;;;;5036906;28;20025;-53
2021/04/20 07:20:16;;;;;;;10.77;5.43;;;20.70;46.40;;;;;;5036602;28;20044;-53
2021/04/20 07:23:18;;;;;;;11.15;5.32;;;20.70;46.50;;;;;;5036316;28;20682;-59
2021/04/20 07:26:14;;;;;;;8.10;4.72;;;20.70;46.50;;;;;;5036538;28;20052;-56
2021/04/20 07:29:11;;;;;;;14.10;5.32;;;20.70;46.50;;;;;;5036497;28;20029;-55
2021/04/20 07:32:05;;;;;;;5.90;5.15;;;20.70;46.60;;;;;;5036727;28;20080;-54
2021/04/20 07:34:39;;;;;;;;;;;20.70;46.80;;;;;;5035668;28;20104;-54
2021/04/20 07:37:07;;;;;;;10.40;4.90;;;20.70;46.80;;;;;;5036604;28;19905;-54
2021/04/20 07:40:12;;;;;;;12.23;6.13;;;20.70;46.90;;;;;;5036361;28;20087;-56
2021/04/20 07:42:58;;;;;;;8.10;5.18;;;20.80;47.00;;;;;;5036286;28;20041;-56
2021/04/20 07:45:36;;;;;;;8.85;5.22;;;20.80;47.10;;;;;;5036332;28;20100;-53
2021/04/20 07:48:20;;;;;;;8.15;5.72;;;20.80;47.30;;;;;;5036330;28;20114;-56
2021/04/20 07:50:50;;;;;;;9.98;6.50;;;20.80;47.40;;;;;;5035259;28;20047;-57
2021/04/20 07:53:41;;;;;;;9.15;5.95;;;20.80;47.30;;;;;;5035812;28;20029;-55
2021/04/20 07:56:19;;;;;;;8.57;5.28;;;20.80;47.50;;;;;;5036092;28;20018;-53
2021/04/20 07:58:49;;;;;;;9.57;5.55;;;20.90;47.70;;;;;;5035868;28;20022;-54
2021/04/20 08:01:47;;;;;;;6.80;4.95;;;20.90;47.70;;;;;;5035620;28;20035;-51
2021/04/20 08:04:23;;;;;;;6.50;5.05;;;20.90;47.70;;;;;;5036022;28;20532;-56
2021/04/20 08:06:55;;;;;;;6.75;4.72;;;20.90;47.80;;;;;;5035947;28;20036;-53
2021/04/20 08:09:28;;;;;;;7.65;5.00;;;21.00;47.90;;;;;;5036079;28;20025;-56
2021/04/20 08:12:08;;;;;;;15.50;12.35;;;21.00;47.90;;;;;;5035202;28;20025;-46
2021/04/20 08:14:44;;;;;;;13.40;7.28;;;21.00;47.50;;;;;;5034754;28;20025;-55
2021/04/20 08:17:36;;;;;;;9.15;7.03;;;21.00;47.80;;;;;;5035672;28;20026;-54
2021/04/20 08:20:09;;;;;;;13.45;7.90;;;21.00;47.80;;;;;;5004958;28;20052;-56
2021/04/20 08:22:36;;;;;;;8.45;6.15;;;21.00;47.80;;;;;;5035014;28;20053;-56
2021/04/20 08:25:19;;;;;;;13.30;5.93;;;21.00;47.70;;;;;;5036076;28;20036;-55
2021/04/20 08:27:47;;;;;;;7.65;6.20;;;21.00;47.60;;;;;;5035142;28;20021;-52
2021/04/20 08:30:43;;;;;;;10.88;7.32;;;21.10;47.50;;;;;;5034735;28;20049;-56
2021/04/20 08:33:14;;;;;;;8.00;6.82;;;21.10;47.40;;;;;;5034409;28;20026;-55
2021/04/20 08:35:41;;;;;;;9.77;6.47;;;21.10;47.30;;;;;;5035214;28;20053;-56
2021/04/20 08:38:32;;;;;;;8.52;5.97;;;21.10;47.20;;;;;;5035005;28;20021;-57
2021/04/20 08:41:28;;;;;;;7.47;5.72;;;21.20;47.10;;;;;;5035212;28;20017;-58
2021/04/20 08:44:12;;;;;;;9.02;7.25;;;21.10;47.00;;;;;;5034818;28;20444;-54
2021/04/20 08:47:10;;;;;;;9.00;7.18;;;21.20;46.80;;;;;;5034972;28;20125;-55
2021/04/20 08:49:44;;;;;;;8.23;7.00;;;21.20;46.80;;;;;;5030712;28;20061;-58
2021/04/20 08:52:24;;;;;;;7.53;6.28;;;21.20;46.70;;;;;;5035190;28;20032;-59
2021/04/20 08:55:10;;;;;;;7.47;6.35;;;21.20;46.70;;;;;;5035021;28;20436;-53
2021/04/20 08:58:22;;;;;;;6.47;5.38;;;21.20;46.60;;;;;;5034962;28;20026;-49
2021/04/20 09:01:31;;;;;;;6.78;6.03;;;21.30;46.50;;;;;;5035031;28;20055;-49
2021/04/20 09:04:08;;;;;;;8.57;5.28;;;21.30;46.30;;;;;;5034352;28;20041;-51
2021/04/20 09:06:47;;;;;;;5.68;5.05;;;21.30;46.20;;;;;;5034812;28;20079;-52
2021/04/20 09:09:14;;;;;;;6.35;5.38;;;21.30;46.10;;;;;;5034997;28;20034;-51
2021/04/20 09:11:50;;;;;;;7.18;5.43;;;21.40;46.00;;;;;;5034267;28;20086;-52
2021/04/20 09:14:36;;;;;;;6.53;5.85;;;21.40;45.90;;;;;;5034616;28;20033;-53
2021/04/20 09:17:07;;;;;;;5.90;5.30;;;21.40;45.80;;;;;;5034165;28;20456;-49
2021/04/20 09:19:43;;;;;;;5.45;4.95;;;21.40;45.70;;;;;;5033487;28;20418;-53
2021/04/20 09:22:39;;;;;;;7.88;5.63;;;21.40;45.60;;;;;;5034658;28;20053;-51
2021/04/20 09:25:12;;;;;;;5.30;4.82;;;21.40;45.50;;;;;;5034777;28;20436;-54
2021/04/20 09:27:53;;;;;;;;;;;21.50;45.50;;;;;;5034690;28;20021;-52
2021/04/20 09:30:21;;;;;;;4.70;4.20;;;21.50;45.50;;;;;;5034064;28;19932;-50
2021/04/20 09:33:05;;;;;;;5.70;5.07;;;21.50;45.40;;;;;;5034132;28;20031;-50
2021/04/20 09:35:33;;;;;;;6.78;6.10;;;21.50;45.20;;;;;;5034148;28;20032;-52
2021/04/20 09:38:01;;;;;;;5.47;4.97;;;21.50;45.20;;;;;;5034466;28;20021;-51
2021/04/20 09:40:27;;;;;;;8.45;4.80;;;21.50;45.10;;;;;;5034015;28;20395;-49
2021/04/20 09:43:06;;;;;;;5.00;4.50;;;21.50;45.10;;;;;;5033799;28;20025;-53
2021/04/20 09:45:38;;;;;;;7.70;4.95;;;21.60;45.10;;;;;;5034284;28;20025;-51
2021/04/20 09:48:19;;;;;;;5.30;4.80;;;21.60;45.00;;;;;;5033474;28;20075;-50
2021/04/20 09:50:54;;;;;;;5.47;4.00;;;21.60;44.90;;;;;;5033984;28;20044;-52
2021/04/20 09:53:38;;;;;;;5.55;4.80;;;21.60;44.90;;;;;;5033538;28;20330;-56
2021/04/20 09:56:26;;;;;;;6.03;5.43;;;21.60;44.80;;;;;;5033588;28;20083;-54
2021/04/20 09:58:51;;;;;;;10.20;5.20;;;21.60;44.80;;;;;;5033942;28;20025;-54
2021/04/20 10:01:56;;;;;;;7.28;5.85;;;21.60;44.80;;;;;;5033626;28;20022;-55
2021/04/20 10:04:26;;;;;;;12.65;7.10;;;21.70;44.80;;;;;;5033333;28;20032;-52
2021/04/20 10:07:29;;;;;;;7.20;6.50;;;21.60;44.50;;;;;;5033512;28;20026;-50
2021/04/20 10:10:02;;;;;;;7.40;5.15;;;21.60;44.80;;;;;;5033773;28;20033;-54
2021/04/20 10:13:06;;;;;;;5.93;5.20;;;21.70;44.80;;;;;;5033510;28;20074;-51
2021/04/20 10:15:42;;;;;;;35.15;6.78;;;21.70;44.80;;;;;;5033237;28;20413;-55
2021/04/20 10:18:25;;;;;;;8.90;6.47;;;21.70;44.80;;;;;;5033572;28;20425;-49
2021/04/20 10:21:21;;;;;;;7.33;5.60;;;21.70;44.80;;;;;;5033454;28;20029;-52
2021/04/20 10:24:19;;;;;;;5.70;4.97;;;21.80;44.80;;;;;;5033082;28;20602;-50
2021/04/20 10:26:54;;;;;;;9.15;5.32;;;21.80;44.80;;;;;;5033424;28;20380;-54
2021/04/20 10:29:54;;;;;;;5.50;4.93;;;21.80;44.70;;;;;;5033167;28;20135;-52
2021/04/20 10:32:28;;;;;;;8.00;5.00;;;21.80;44.70;;;;;;5028705;28;20037;-52
2021/04/20 10:34:55;;;;;;;5.53;4.63;;;21.80;44.70;;;;;;5033252;28;20116;-49
2021/04/20 10:37:33;;;;;;;7.35;4.50;;;21.80;44.70;;;;;;5032668;28;20030;-53
2021/04/20 10:40:00;;;;;;;7.65;4.00;;;21.80;44.60;;;;;;5033103;28;20025;-52
2021/04/20 10:42:28;;;;;;;4.90;4.40;;;21.90;44.70;;;;;;5033768;28;20363;-49
2021/04/20 10:44:55;;;;;;;4.03;3.63;;;21.90;44.70;;;;;;5033182;28;20021;-50
2021/04/20 10:47:22;;;;;;;7.18;4.13;;;21.90;44.60;;;;;;5032717;28;20037;-54
2021/04/20 10:49:52;;;;;;;4.63;3.92;;;21.90;44.60;;;;;;5033147;28;20677;-52
2021/04/20 10:52:19;;;;;;;4.65;3.80;;;21.80;45.10;;;;;;5032716;28;20022;-48
2021/04/20 10:54:46;;;;;;;3.47;3.17;;;21.80;44.40;;;;;;5032969;28;20448;-51
2021/04/20 10:57:12;;;;;;;4.30;3.90;;;21.90;44.50;;;;;;5032997;28;20083;-49
2021/04/20 10:59:41;;;;;;;3.72;3.42;;;21.90;44.40;;;;;;5032615;28;20025;-52
2021/04/20 11:02:11;;;;;;;4.47;3.70;;;21.90;44.40;;;;;;5033214;28;20083;-50
2021/04/20 11:04:38;;;;;;;4.30;3.90;;;21.90;44.40;;;;;;5032735;28;20032;-53
2021/04/20 11:07:26;;;;;;;4.40;4.00;;;21.90;44.40;;;;;;5032518;28;20428;-49
2021/04/20 11:09:58;;;;;;;6.00;5.20;;;21.90;44.50;;;;;;5033066;28;20475;-46
2021/04/20 11:12:24;;;;;;;9.23;6.20;;;21.90;44.10;;;;;;5032978;28;20042;-45
2021/04/20 11:14:53;;;;;;;7.95;6.15;;;21.80;43.50;;;;;;5032950;28;20017;-50
2021/04/20 11:17:22;;;;;;;9.45;5.22;;;21.80;43.50;;;;;;5032932;28;20029;-53
2021/04/20 11:20:15;;;;;;;4.78;4.28;;;21.80;44.10;;;;;;5033048;28;20032;-45
2021/04/20 11:22:50;;;;;;;6.03;4.47;;;21.90;44.40;;;;;;5033133;28;20420;-50
2021/04/20 11:25:24;;;;;;;5.35;4.85;;;21.90;44.60;;;;;;5032750;28;20026;-48
2021/04/20 11:27:55;;;;;;;4.20;3.72;;;21.90;44.40;;;;;;5031759;28;20029;-45
2021/04/20 11:30:32;;;;;;;4.40;3.53;;;21.90;44.50;;;;;;5032292;28;20632;-45
2021/04/20 11:33:04;;;;;;;4.50;3.67;;;21.90;44.50;;;;;;5032850;28;20025;-45
2021/04/20 11:35:31;;;;;;;4.73;3.80;;;22.00;45.20;;;;;;5032715;28;20091;-49
2021/04/20 11:38:01;;;;;;;4.45;3.70;;;22.00;44.50;;;;;;5032909;28;20029;-49
2021/04/20 11:40:37;;;;;;;3.80;3.50;;;22.00;44.50;;;;;;5032452;28;20033;-48
2021/04/20 11:43:04;;;;;;;4.93;3.72;;;22.00;44.50;;;;;;5033262;28;20072;-49
2021/04/20 11:45:36;;;;;;;6.63;4.38;;;22.10;44.50;;;;;;5032783;28;20022;-49
2021/04/20 11:48:33;;;;;;;3.95;3.65;;;22.10;44.40;;;;;;5032892;28;20183;-47
2021/04/20 11:51:02;;;;;;;5.63;3.60;;;22.10;44.40;;;;;;5036421;28;20061;-51
2021/04/20 11:53:36;;;;;;;3.78;3.42;;;22.10;44.40;;;;;;5035505;28;20032;-49
2021/04/20 11:56:02;;;;;;;5.57;4.18;;;22.10;44.40;;;;;;5035988;28;20029;-49
2021/04/20 11:58:35;;;;;;;3.60;3.30;;;22.10;44.10;;;;;;5035862;28;20041;-49
2021/04/20 12:01:14;;;;;;;4.18;3.20;;;22.10;44.20;;;;;;5035861;28;20026;-51
2021/04/20 12:04:01;;;;;;;4.15;3.30;;;22.30;44.10;;;;;;5036066;28;20021;-49
2021/04/20 12:06:39;;;;;;;4.45;3.40;;;22.40;43.80;;;;;;5035920;28;20106;-47
2021/04/20 12:09:06;;;;;;;4.10;3.50;;;22.50;43.60;;;;;;5035307;28;20048;-50
2021/04/20 12:11:33;;;;;;;3.42;3.10;;;22.50;43.50;;;;;;5035566;28;20488;-55
2021/04/20 12:14:01;;;;;;;5.50;4.05;;;22.50;43.60;;;;;;5035642;28;20025;-55
2021/04/20 12:16:36;;;;;;;4.43;3.95;;;22.40;43.60;;;;;;5035803;28;20026;-51
2021/04/20 12:19:06;;;;;;;5.40;3.85;;;22.40;43.50;;;;;;5035668;28;20066;-55
2021/04/20 12:21:36;;;;;;;4.40;4.00;;;22.40;43.50;;;;;;5035327;28;20091;-53
2021/04/20 12:24:03;;;;;;;3.95;3.55;;;22.30;43.50;;;;;;5035541;28;20040;-54
2021/04/20 12:26:31;;;;;;;3.25;2.95;;;22.30;43.60;;;;;;5035862;28;20348;-52
2021/04/20 12:29:01;;;;;;;3.25;2.95;;;22.30;43.70;;;;;;5035139;28;20038;-52
2021/04/20 12:31:28;;;;;;;7.43;3.58;;;22.30;43.70;;;;;;5035420;28;20028;-54
2021/04/20 12:33:54;;;;;;;4.20;3.80;;;22.30;43.70;;;;;;5034997;28;20029;-54
2021/04/20 12:36:52;;;;;;;5.10;3.58;;;22.30;43.70;;;;;;5035317;28;20026;-51
2021/04/20 12:39:26;;;;;;;5.47;3.65;;;22.30;43.70;;;;;;5030119;28;20041;-55
2021/04/20 12:41:53;;;;;;;3.75;3.15;;;22.20;44.30;;;;;;5034921;28;20397;-55
2021/04/20 12:44:25;;;;;;;4.22;3.25;;;22.30;43.70;;;;;;5035191;28;20060;-55
2021/04/20 12:46:55;;;;;;;3.55;3.13;;;22.30;43.80;;;;;;5034826;28;20415;-55
2021/04/20 12:49:23;;;;;;;3.47;3.17;;;22.30;43.80;;;;;;5034635;28;20471;-54
2021/04/20 12:51:49;;;;;;;3.25;2.97;;;22.30;43.80;;;;;;5035355;28;20022;-53
2021/04/20 12:54:20;;;;;;;4.43;2.95;;;22.30;43.80;;;;;;5034508;28;20572;-50
2021/04/20 12:56:47;;;;;;;3.33;3.03;;;22.30;43.80;;;;;;5035168;28;20398;-54
2021/04/20 12:59:20;;;;;;;4.65;3.30;;;22.30;43.90;;;;;;5034770;28;20037;-54
2021/04/20 13:01:59;;;;;;;3.15;2.80;;;22.30;43.90;;;;;;5034713;28;20107;-53
2021/04/20 13:04:28;;;;;;;2.90;2.70;;;22.30;43.90;;;;;;5034835;28;20222;-52
2021/04/20 13:06:54;;;;;;;3.17;2.88;;;22.30;43.90;;;;;;5035246;28;20076;-56
2021/04/20 13:09:30;;;;;;;4.40;3.72;;;22.30;43.90;;;;;;5034154;28;20025;-54
2021/04/20 13:11:58;;;;;;;6.28;4.38;;;22.30;43.80;;;;;;5034356;28;20335;-54